Time;durP1;ratioP1;P1;durP2;ratioP2;P2;SDS_P1;SDS_P2;PMS_P1;PMS_P2;Temp;Humidity;BMP_temperature;BMP_pressure;BME280_temperature;BME280_humidity;BME280_pressure;Samples;Min_cycle;Max_cycle;Signal;HPM_P1;HPM_P2
2023/08/06 00:01:31;;;;;;;2.83;2.03;;;;;;;26.26;72.26;98312.22;5112203;28;20028;-86
2023/08/06 00:03:59;;;;;;;1.85;1.58;;;;;;;26.09;72.09;98279.66;5111692;28;20066;-86
2023/08/06 00:06:24;;;;;;;3.22;2.25;;;;;;;26.27;72.40;98314.75;5112295;27;20489;-86
2023/08/06 00:08:49;;;;;;;14.07;2.92;;;;;;;26.19;72.50;98305.72;5093967;28;20078;-86
2023/08/06 00:11:15;;;;;;;3.72;1.65;;;;;;;26.35;72.19;98310.41;5092994;28;21029;-86
2023/08/06 00:13:40;;;;;;;3.13;2.50;;;;;;;26.23;72.47;98299.00;5125132;27;20028;-87
2023/08/06 00:16:13;;;;;;;6.20;2.60;;;;;;;26.04;72.68;98284.69;5109374;28;20020;-87
2023/08/06 00:18:39;;;;;;;2.70;1.88;;;;;;;26.12;72.90;98294.72;5112468;28;20031;-86
2023/08/06 00:21:04;;;;;;;4.28;3.08;;;;;;;25.65;74.75;98263.34;5144650;27;20040;-87
2023/08/06 00:23:30;;;;;;;3.65;1.65;;;;;;;25.72;74.79;98274.41;5113176;28;20023;-88
2023/08/06 00:25:56;;;;;;;7.32;2.05;;;;;;;25.89;73.89;98283.50;5112156;28;20027;-90
2023/08/06 00:28:22;;;;;;;2.88;2.22;;;;;;;25.79;74.48;98288.97;5111168;28;20031;-90
2023/08/06 00:30:53;;;;;;;5.93;3.08;;;;;;;25.45;74.62;98232.94;5112583;28;20421;-89
2023/08/06 00:33:19;;;;;;;2.50;1.75;;;;;;;25.31;76.67;98255.06;5112297;28;20020;-90
2023/08/06 00:35:45;;;;;;;4.35;2.22;;;;;;;25.72;75.71;98318.44;5112804;28;20099;-89
2023/08/06 00:38:10;;;;;;;3.83;2.10;;;;;;;25.49;75.90;98266.75;5112807;28;20046;-89
2023/08/06 00:40:35;;;;;;;2.67;1.88;;;;;;;25.62;75.61;98270.91;5101079;28;20038;-88
2023/08/06 00:43:01;;;;;;;2.80;1.77;;;;;;;26.03;74.44;98301.03;5108786;28;20059;-88
2023/08/06 00:45:29;;;;;;;3.42;2.53;;;;;;;25.96;74.61;98298.06;5111326;28;20024;-88
2023/08/06 00:47:55;;;;;;;3.15;2.22;;;;;;;26.12;74.12;98310.06;5111464;28;20126;-88
2023/08/06 00:50:22;;;;;;;4.68;3.47;;;;;;;25.71;74.37;98256.50;5110482;28;20405;-88
2023/08/06 00:52:48;;;;;;;3.00;2.08;;;;;;;26.03;73.71;98280.28;5111498;28;20482;-87
2023/08/06 00:55:15;;;;;;;8.60;2.78;;;;;;;25.96;73.84;98276.44;5109654;28;20532;-87
2023/08/06 00:57:41;;;;;;;4.00;2.17;;;;;;;25.74;74.89;98248.91;5111689;27;20039;-89
2023/08/06 01:00:07;;;;;;;3.40;1.90;;;;;;;25.52;75.74;98238.59;5110185;28;20057;-88
2023/08/06 01:02:33;;;;;;;2.10;1.58;;;;;;;25.76;74.90;98246.06;5110485;28;20038;-89
2023/08/06 01:04:58;;;;;;;2.67;1.95;;;;;;;25.47;76.29;98244.47;5111029;28;20511;-88
2023/08/06 01:07:45;;;;;;;2.63;1.70;;;;;;;25.58;77.26;98270.38;5108719;28;20057;-88
2023/08/06 01:10:11;;;;;;;3.55;2.70;;;;;;;25.31;78.70;98277.50;5111474;28;20042;-90
2023/08/06 01:13:03;;;;;;;4.10;2.25;;;;;;;25.00;80.06;98250.81;5110353;28;20103;-89
2023/08/06 01:15:32;;;;;;;2.97;1.63;;;;;;;25.08;79.85;98238.44;5112231;28;20034;-87
2023/08/06 01:17:58;;;;;;;2.28;2.05;;;;;;;24.92;79.98;98222.91;5111138;28;20077;-87
2023/08/06 01:20:30;;;;;;;2.65;2.05;;;;;;;25.20;79.48;98239.91;5111513;28;20039;-87
2023/08/06 01:22:56;;;;;;;2.60;1.95;;;;;;;25.32;79.07;98264.88;5111148;28;20023;-87
2023/08/06 01:25:30;;;;;;;3.88;3.05;;;;;;;25.20;78.87;98261.50;5110975;28;20060;-88
2023/08/06 01:28:00;;;;;;;3.40;2.05;;;;;;;25.23;78.91;98268.44;5111700;28;20105;-88
2023/08/06 01:30:30;;;;;;;4.00;2.30;;;;;;;25.23;79.05;98263.88;5108744;28;20442;-88
2023/08/06 01:33:03;;;;;;;2.67;1.65;;;;;;;25.08;80.45;98282.41;5110754;28;20096;-87
2023/08/06 01:35:30;;;;;;;2.55;1.73;;;;;;;24.86;79.91;98226.19;5111497;28;20031;-88
2023/08/06 01:37:56;;;;;;;4.40;2.92;;;;;;;24.77;81.22;98231.47;5109435;28;20036;-87
2023/08/06 01:40:21;;;;;;;2.17;1.70;;;;;;;24.65;81.66;98229.97;5111259;28;20050;-88
2023/08/06 01:42:47;;;;;;;2.55;2.10;;;;;;;24.42;84.78;98272.56;5111047;28;20031;-87
2023/08/06 01:45:12;;;;;;;4.57;2.40;;;;;;;24.57;85.11;98265.75;5110929;28;20035;-88
2023/08/06 01:47:38;;;;;;;5.35;2.55;;;;;;;24.27;85.01;98207.53;5110680;28;20023;-89
2023/08/06 01:50:04;;;;;;;5.60;2.63;;;;;;;24.22;86.21;98218.75;5111192;28;20030;-88
2023/08/06 01:52:29;;;;;;;3.95;2.45;;;;;;;24.35;86.99;98250.75;5109450;28;20039;-90
2023/08/06 01:54:56;;;;;;;4.50;2.75;;;;;;;24.19;87.06;98223.56;5110628;28;20090;-88
2023/08/06 01:57:21;;;;;;;3.95;2.80;;;;;;;24.36;87.17;98254.28;5111013;28;20406;-88
2023/08/06 01:59:47;;;;;;;4.25;2.10;;;;;;;24.59;86.13;98249.41;5110347;28;20036;-90
2023/08/06 02:02:14;;;;;;;5.65;3.25;;;;;;;24.47;86.45;98257.66;5109325;28;20603;-89
2023/08/06 02:04:39;;;;;;;3.38;2.25;;;;;;;24.23;87.35;98217.72;5110662;28;20489;-88
2023/08/06 02:07:05;;;;;;;5.53;2.92;;;;;;;24.54;86.42;98251.69;5109829;28;20035;-90
2023/08/06 02:09:31;;;;;;;4.05;2.75;;;;;;;24.42;86.02;98245.63;5111133;28;20039;-89
2023/08/06 02:11:58;;;;;;;3.95;2.92;;;;;;;24.38;87.44;98265.78;5109874;28;20028;-89
2023/08/06 02:14:23;;;;;;;5.95;3.20;;;;;;;24.79;84.93;98245.66;5109597;28;20027;-88
2023/08/06 02:16:50;;;;;;;5.07;3.67;;;;;;;25.20;82.70;98289.31;5108650;28;20027;-88
2023/08/06 02:19:16;;;;;;;4.15;2.78;;;;;;;25.05;82.67;98280.03;5109854;28;20093;-89
2023/08/06 02:21:42;;;;;;;4.90;2.95;;;;;;;24.72;83.22;98219.47;5094301;28;20065;-89
2023/08/06 02:24:07;;;;;;;4.78;3.53;;;;;;;24.83;82.73;98220.09;5092420;28;20063;-90
2023/08/06 02:26:33;;;;;;;6.63;3.53;;;;;;;25.00;82.48;98225.69;5127178;27;20024;-88
2023/08/06 02:28:58;;;;;;;3.85;3.13;;;;;;;25.11;81.61;98230.88;5110453;28;20466;-88
2023/08/06 02:31:24;;;;;;;5.00;3.90;;;;;;;25.32;80.50;98251.38;5114854;28;20024;-87
2023/08/06 02:33:51;;;;;;;4.80;3.35;;;;;;;25.37;80.09;98259.84;5113435;28;20019;-87
2023/08/06 02:36:16;;;;;;;3.58;2.83;;;;;;;25.35;79.76;98233.03;5114972;28;20035;-87
2023/08/06 02:38:41;;;;;;;5.20;2.90;;;;;;;25.24;80.45;98241.31;5113750;28;20036;-88
2023/08/06 02:41:07;;;;;;;3.67;2.80;;;;;;;24.95;80.83;98209.13;5114948;28;20049;-89
2023/08/06 02:43:32;;;;;;;2.97;2.28;;;;;;;24.97;81.93;98232.22;5113712;28;20517;-90
2023/08/06 02:45:59;;;;;;;4.55;3.10;;;;;;;24.58;84.37;98218.94;5113627;28;20031;-88
2023/08/06 02:48:26;;;;;;;8.38;3.67;;;;;;;24.66;84.89;98240.59;5113374;28;20521;-90
2023/08/06 02:50:52;;;;;;;5.82;3.85;;;;;;;24.54;85.95;98257.06;5112662;27;20023;-90
2023/08/06 02:53:17;;;;;;;6.65;4.22;;;;;;;24.41;86.46;98225.91;5105769;28;20034;-89
2023/08/06 02:55:47;;;;;;;5.40;4.53;;;;;;;24.82;85.47;98256.16;5099011;28;20067;-88
2023/08/06 02:58:17;;;;;;;4.78;3.38;;;;;;;24.49;85.24;98184.75;5107671;28;20485;-90
2023/08/06 03:00:43;;;;;;;5.22;3.63;;;;;;;24.52;85.34;98203.31;5112475;28;20065;-90
2023/08/06 03:03:09;;;;;;;6.95;4.95;;;;;;;24.87;84.41;98247.63;5147169;27;20208;-90
2023/08/06 03:05:35;;;;;;;8.05;4.43;;;;;;;24.55;85.16;98204.88;5112347;28;20028;-91
2023/08/06 03:08:01;;;;;;;7.18;5.43;;;;;;;24.43;85.41;98215.00;5114569;28;20035;-87
2023/08/06 03:10:26;;;;;;;6.57;4.05;;;;;;;24.43;84.50;98178.09;5113298;28;20027;-89
2023/08/06 03:12:54;;;;;;;6.47;4.38;;;;;;;24.70;84.47;98227.69;5114385;28;20036;-87
2023/08/06 03:15:19;;;;;;;9.68;5.03;;;;;;;24.86;84.54;98242.38;5113869;28;20026;-88
2023/08/06 03:17:45;;;;;;;4.75;3.78;;;;;;;24.58;85.25;98218.09;5113994;28;20028;-88
2023/08/06 03:20:10;;;;;;;7.00;5.07;;;;;;;24.80;84.32;98223.09;5112183;28;20051;-88
2023/08/06 03:22:36;;;;;;;7.75;3.65;;;;;;;24.80;83.82;98206.06;5112843;28;20089;-87
2023/08/06 03:25:01;;;;;;;5.18;3.80;;;;;;;24.72;84.11;98204.13;5111943;28;20501;-88
2023/08/06 03:27:27;;;;;;;6.25;5.40;;;;;;;24.90;83.59;98225.75;5113278;27;20032;-89
2023/08/06 03:29:52;;;;;;;6.45;4.10;;;;;;;24.91;82.41;98199.63;5113508;28;20028;-89
2023/08/06 03:32:18;;;;;;;6.30;3.60;;;;;;;24.95;82.00;98192.94;5111702;28;20028;-89
2023/08/06 03:34:44;;;;;;;6.05;4.55;;;;;;;25.19;81.79;98230.97;5110718;28;20093;-90
2023/08/06 03:37:09;;;;;;;6.90;4.88;;;;;;;25.24;81.87;98235.91;5113550;28;20072;-91
2023/08/06 03:39:34;;;;;;;12.50;5.90;;;;;;;25.28;81.61;98234.59;5111947;28;20032;-91
2023/08/06 03:42:01;;;;;;;6.25;3.90;;;;;;;25.30;79.94;98235.34;5113050;27;20351;-92
2023/08/06 03:44:28;;;;;;;9.55;5.68;;;;;;;25.27;80.81;98245.53;5113149;28;20114;-90
2023/08/06 03:46:53;;;;;;;6.97;4.72;;;;;;;25.18;81.32;98231.97;5112899;28;20489;-91
2023/08/06 03:49:19;;;;;;;7.03;4.43;;;;;;;25.07;81.55;98218.69;5111224;28;20047;-88
2023/08/06 03:51:44;;;;;;;7.90;4.95;;;;;;;25.23;81.59;98246.88;5113180;28;20409;-88
2023/08/06 03:54:10;;;;;;;7.50;5.18;;;;;;;25.24;81.07;98235.06;5111107;28;20040;-88
2023/08/06 03:56:35;;;;;;;6.00;4.82;;;;;;;25.40;81.38;98262.25;5111218;28;20028;-87
2023/08/06 03:59:01;;;;;;;9.63;5.20;;;;;;;25.24;80.69;98216.16;5102773;28;20027;-89
2023/08/06 04:01:26;;;;;;;7.38;4.63;;;;;;;25.48;79.96;98240.75;5112078;28;20477;-89
2023/08/06 04:03:52;;;;;;;5.60;4.10;;;;;;;25.50;80.22;98246.84;5113271;28;20417;-90
2023/08/06 04:06:17;;;;;;;6.00;4.05;;;;;;;25.52;80.29;98247.53;5113300;28;20405;-93
2023/08/06 04:08:43;;;;;;;7.18;4.00;;;;;;;25.75;79.74;98274.09;5112215;28;20039;-93
2023/08/06 04:11:09;;;;;;;10.05;4.30;;;;;;;25.71;79.10;98243.81;5111953;28;20112;-87
2023/08/06 04:13:35;;;;;;;6.45;4.32;;;;;;;25.85;78.34;98258.63;5112170;28;20086;-89
2023/08/06 04:16:04;;;;;;;6.82;4.18;;;;;;;25.76;79.20;98256.03;5112283;28;20027;-89
2023/08/06 04:18:29;;;;;;;7.65;3.80;;;;;;;25.62;78.89;98227.72;5112829;28;20034;-88
2023/08/06 04:20:57;;;;;;;5.90;3.72;;;;;;;25.88;78.29;98266.44;5112571;28;20028;-89
2023/08/06 04:23:22;;;;;;;9.80;4.88;;;;;;;25.82;78.60;98223.00;5112845;28;20031;-88
2023/08/06 04:25:48;;;;;;;6.88;5.00;;;;;;;25.88;79.55;98254.78;5112155;27;20031;-90
2023/08/06 04:28:13;;;;;;;8.93;5.63;;;;;;;25.67;77.93;98217.28;5111968;28;20578;-92
2023/08/06 04:30:39;;;;;;;6.28;4.22;;;;;;;25.86;77.80;98235.19;5110202;28;20131;-90
2023/08/06 04:33:05;;;;;;;8.13;5.53;;;;;;;26.06;77.47;98225.94;5112112;28;20027;-89
2023/08/06 04:35:30;;;;;;;8.60;5.53;;;;;;;26.41;76.47;98266.53;5111726;28;20039;-88
2023/08/06 04:37:56;;;;;;;10.43;5.63;;;;;;;26.02;75.86;98266.91;5112803;28;20497;-90
2023/08/06 04:40:21;;;;;;;11.15;6.03;;;;;;;25.77;75.21;98245.06;5112290;28;20031;-90
2023/08/06 04:42:47;;;;;;;13.02;4.78;;;;;;;25.91;75.81;98251.78;5104257;28;20594;-90
2023/08/06 04:45:12;;;;;;;8.50;6.18;;;;;;;26.37;74.75;98274.13;5112354;27;20031;-89
2023/08/06 04:47:37;;;;;;;10.50;5.88;;;;;;;26.46;74.08;98264.19;5110887;28;20027;-89
2023/08/06 04:50:03;;;;;;;10.48;5.45;;;;;;;26.64;73.18;98288.47;5106003;28;20035;-90
2023/08/06 04:52:29;;;;;;;10.00;6.47;;;;;;;26.22;72.67;98218.94;5090450;28;20032;-88
2023/08/06 04:54:57;;;;;;;12.25;7.25;;;;;;;26.66;72.04;98266.72;5095597;28;20039;-88
2023/08/06 04:57:23;;;;;;;9.63;7.30;;;;;;;26.60;71.59;98251.94;5127795;27;20039;-89
2023/08/06 04:59:50;;;;;;;9.32;5.75;;;;;;;26.75;71.64;98272.00;5109850;28;20062;-89
2023/08/06 05:02:16;;;;;;;6.43;4.82;;;;;;;26.47;71.99;98241.56;5111099;28;20032;-89
2023/08/06 05:04:41;;;;;;;15.55;7.00;;;;;;;26.73;71.45;98260.50;5104191;28;20122;-89
2023/08/06 05:07:07;;;;;;;14.55;7.47;;;;;;;27.16;70.54;98284.88;5107162;28;20123;-88
2023/08/06 05:09:32;;;;;;;8.77;7.15;;;;;;;27.05;70.19;98258.09;5134375;27;20089;-87
2023/08/06 05:12:01;;;;;;;9.43;6.15;;;;;;;26.95;69.48;98239.28;5111707;28;20450;-87
2023/08/06 05:14:28;;;;;;;6.70;5.20;;;;;;;26.73;70.11;98232.63;5109635;28;20047;-87
2023/08/06 05:16:54;;;;;;;8.20;6.30;;;;;;;26.90;70.22;98258.72;5098756;28;20468;-88
2023/08/06 05:19:20;;;;;;;10.30;7.32;;;;;;;26.83;70.78;98248.72;5105378;28;20028;-89
2023/08/06 05:21:45;;;;;;;7.38;5.28;;;;;;;26.77;70.64;98226.72;5111521;28;20127;-89
2023/08/06 05:24:12;;;;;;;8.02;5.45;;;;;;;26.61;70.53;98221.19;5111681;28;20056;-89
2023/08/06 05:26:37;;;;;;;10.02;6.07;;;;;;;26.79;70.46;98262.56;5111050;28;20027;-88
2023/08/06 05:29:03;;;;;;;7.07;4.90;;;;;;;26.56;70.27;98210.03;5111246;28;20046;-88
2023/08/06 05:31:29;;;;;;;8.95;5.88;;;;;;;26.90;69.51;98245.19;5110830;28;20035;-88
2023/08/06 05:33:55;;;;;;;12.43;6.07;;;;;;;26.86;70.22;98281.69;5110694;28;20073;-90
2023/08/06 05:36:21;;;;;;;10.43;6.55;;;;;;;26.18;73.43;98269.75;5105848;28;20028;-90
2023/08/06 05:38:47;;;;;;;8.65;5.25;;;;;;;26.31;72.13;98249.59;5099712;28;20019;-89
2023/08/06 05:41:14;;;;;;;9.52;5.28;;;;;;;26.24;72.18;98231.31;5096032;28;20073;-91
2023/08/06 05:43:39;;;;;;;9.65;7.25;;;;;;;26.05;72.91;98205.31;5093421;28;20097;-90
2023/08/06 05:46:05;;;;;;;7.47;6.07;;;;;;;25.62;74.84;98174.56;5104913;28;20059;-89
2023/08/06 05:48:31;;;;;;;8.18;5.60;;;;;;;25.80;76.29;98242.06;5108827;28;20059;-88
2023/08/06 05:50:57;;;;;;;11.18;6.55;;;;;;;25.81;75.34;98216.75;5110308;28;20023;-87
2023/08/06 05:53:23;;;;;;;10.38;6.82;;;;;;;26.11;75.07;98252.47;5111061;28;20031;-87
2023/08/06 05:55:48;;;;;;;8.90;7.47;;;;;;;26.23;75.71;98259.31;5110297;28;20047;-86
2023/08/06 05:58:14;;;;;;;9.30;5.85;;;;;;;26.49;74.77;98271.97;5109904;28;20040;-87
2023/08/06 06:00:39;;;;;;;13.43;7.95;;;;;;;26.34;75.57;98246.56;5110554;28;20027;-87
2023/08/06 06:03:04;;;;;;;11.18;7.70;;;;;;;25.98;76.93;98215.06;5110646;28;20548;-86
2023/08/06 06:05:30;;;;;;;10.05;6.97;;;;;;;25.89;77.98;98222.22;5111092;28;20488;-88
2023/08/06 06:07:55;;;;;;;8.88;5.38;;;;;;;25.22;81.47;98169.63;5110866;28;20030;-89
2023/08/06 06:10:21;;;;;;;8.88;5.55;;;;;;;25.28;83.40;98217.56;5109790;28;20031;-89
2023/08/06 06:12:48;;;;;;;8.85;4.82;;;;;;;25.01;83.77;98233.63;5110349;28;20096;-90
2023/08/06 06:15:13;;;;;;;6.60;4.57;;;;;;;24.45;83.30;98258.78;5110248;28;20038;-89
2023/08/06 06:17:39;;;;;;;6.63;3.65;;;;;;;24.23;81.31;98198.88;5110743;28;20053;-89
2023/08/06 06:20:05;;;;;;;3.45;3.13;;;;;;;24.22;80.89;98267.22;5110497;28;20038;-90
2023/08/06 06:22:31;;;;;;;3.47;2.67;;;;;;;24.44;81.03;98265.19;5110177;28;20023;-89
2023/08/06 06:24:56;;;;;;;3.83;2.60;;;;;;;24.53;79.63;98263.44;5110074;28;20030;-89
2023/08/06 06:27:22;;;;;;;5.75;2.33;;;;;;;24.81;79.75;98294.06;5108776;28;20051;-88
2023/08/06 06:29:47;;;;;;;5.72;2.42;;;;;;;24.84;78.91;98275.72;5109202;28;20023;-86
2023/08/06 06:32:13;;;;;;;3.47;2.13;;;;;;;24.66;80.01;98237.06;5102105;28;20038;-86
2023/08/06 06:34:38;;;;;;;3.88;3.28;;;;;;;24.75;79.80;98236.16;5102720;28;20059;-88
2023/08/06 06:37:04;;;;;;;4.53;2.20;;;;;;;24.40;82.03;98202.66;5108927;28;20037;-89
2023/08/06 06:39:29;;;;;;;4.43;2.92;;;;;;;24.08;83.34;98197.63;5109416;28;20016;-87
2023/08/06 06:41:56;;;;;;;3.80;2.42;;;;;;;24.25;84.05;98196.91;5109446;28;20043;-85
2023/08/06 06:44:21;;;;;;;5.85;3.17;;;;;;;24.48;83.67;98207.31;5109431;28;20031;-85
2023/08/06 06:46:47;;;;;;;11.18;3.08;;;;;;;24.66;84.36;98218.19;5109791;28;20049;-86
2023/08/06 06:49:12;;;;;;;3.40;2.58;;;;;;;24.17;87.25;98217.47;5108878;28;20046;-87
2023/08/06 06:51:38;;;;;;;2.45;1.60;;;;;;;23.52;90.83;98197.38;5109268;28;20020;-86
2023/08/06 06:54:03;;;;;;;3.17;1.55;;;;;;;23.44;94.73;98186.50;5109806;28;20020;-87
2023/08/06 06:56:29;;;;;;;3.92;2.03;;;;;;;23.64;90.98;98226.88;5109895;28;20071;-90
2023/08/06 06:58:55;;;;;;;3.83;2.60;;;;;;;23.67;92.78;98184.34;5108846;28;20096;-85
2023/08/06 07:01:21;;;;;;;2.53;1.88;;;;;;;24.33;90.43;98198.00;5110855;28;20056;-84
2023/08/06 07:07:07;;;;;;;2.80;2.42;;;;;;;25.24;80.46;98267.44;5111345;28;20080;-85
2023/08/06 07:09:33;;;;;;;4.03;2.20;;;;;;;25.49;80.57;98290.19;5111115;28;20032;-85
2023/08/06 07:11:58;;;;;;;3.03;2.08;;;;;;;25.10;78.44;98274.19;5095716;28;20027;-85
2023/08/06 07:14:28;;;;;;;2.88;1.98;;;;;;;25.13;79.98;98281.97;5114751;27;20448;-84
2023/08/06 07:16:54;;;;;;;2.13;1.50;;;;;;;25.06;80.99;98265.56;5114389;27;20027;-84
2023/08/06 07:19:20;;;;;;;4.97;2.97;;;;;;;24.87;78.03;98279.13;5114205;28;20027;-90
2023/08/06 07:21:45;;;;;;;3.22;2.03;;;;;;;25.14;78.33;98314.19;5113370;28;20473;-90
2023/08/06 07:24:11;;;;;;;3.05;2.10;;;;;;;24.97;80.21;98288.84;5108513;28;20047;-88
2023/08/06 07:26:37;;;;;;;2.70;1.92;;;;;;;24.92;79.98;98256.09;5093578;28;20473;-93
2023/08/06 07:29:02;;;;;;;5.03;2.80;;;;;;;25.16;79.28;98282.53;5098921;28;20036;-89
2023/08/06 07:31:28;;;;;;;2.88;1.95;;;;;;;24.80;78.79;98258.13;5111259;28;20111;-89
2023/08/06 07:33:54;;;;;;;4.43;2.70;;;;;;;24.92;82.15;98287.63;5114386;28;20043;-92
2023/08/06 07:36:19;;;;;;;3.13;2.45;;;;;;;24.86;82.35;98259.41;5112157;28;20035;-91
2023/08/06 07:38:45;;;;;;;3.55;3.22;;;;;;;24.80;81.75;98303.97;5113757;28;20031;-87
2023/08/06 07:41:10;;;;;;;3.90;2.35;;;;;;;24.63;83.92;98288.56;5112864;28;20028;-82
2023/08/06 07:43:36;;;;;;;4.32;2.85;;;;;;;24.54;84.28;98297.50;5112452;28;20028;-82
2023/08/06 07:53:47;;;;;;;9.77;3.45;;;;;;;24.76;85.45;98251.38;4875169;26;20044;-87
2023/08/06 07:56:12;;;;;;;16.17;4.38;;;;;;;25.07;82.80;98269.97;5067205;28;20512;-91
2023/08/06 07:58:37;;;;;;;5.03;2.80;;;;;;;25.27;83.99;98294.97;5052913;28;20069;-95
2023/08/06 08:01:03;;;;;;;3.60;2.45;;;;;;;25.15;82.73;98294.31;5059964;28;20526;-91
2023/08/06 08:03:28;;;;;;;4.68;2.45;;;;;;;25.28;80.45;98312.84;5054919;28;20166;-83
2023/08/06 08:05:58;;;;;;;5.13;3.05;;;;;;;25.00;80.87;98285.88;5050618;28;20425;-84
2023/08/06 08:08:24;;;;;;;4.47;2.42;;;;;;;24.99;82.00;98291.41;5051336;28;20663;-83
2023/08/06 08:10:50;;;;;;;4.45;3.67;;;;;;;25.45;80.63;98294.19;5059803;28;20040;-86
2023/08/06 08:13:15;;;;;;;6.18;4.60;;;;;;;25.61;78.47;98324.06;5070155;28;20028;-85
2023/08/06 08:15:41;;;;;;;4.30;2.42;;;;;;;25.55;78.81;98317.41;5070372;28;20040;-88
2023/08/06 08:18:06;;;;;;;3.72;2.42;;;;;;;25.34;80.03;98317.66;5061583;28;20032;-86
2023/08/06 08:20:32;;;;;;;3.25;2.67;;;;;;;25.40;79.64;98323.50;5060782;28;20033;-87
2023/08/06 08:23:00;;;;;;;5.05;3.22;;;;;;;24.67;80.53;98298.91;5048356;28;20402;-94
2023/08/06 08:25:26;;;;;;;7.25;3.65;;;;;;;24.19;81.88;98281.00;5051306;28;20080;-88
2023/08/06 08:27:52;;;;;;;12.88;3.42;;;;;;;24.52;83.93;98330.00;5050709;28;20036;-92
2023/08/06 08:30:21;;;;;;;4.25;2.47;;;;;;;24.07;87.00;98331.47;5051269;28;20033;-96
2023/08/06 08:32:49;;;;;;;4.88;2.70;;;;;;;24.14;88.32;98334.44;5069792;28;20513;-95
2023/08/06 08:35:15;;;;;;;4.47;3.30;;;;;;;23.91;88.75;98307.81;5070548;28;20497;-92
2023/08/06 08:40:51;;;;;;;6.70;2.25;;;;;;;24.43;87.75;98296.66;4991525;28;20076;-91
2023/08/06 08:43:20;;;;;;;5.82;4.70;;;;;;;24.52;87.12;98277.94;4993842;28;20046;-91
2023/08/06 08:45:49;;;;;;;3.63;2.35;;;;;;;24.72;85.43;98249.13;4989687;28;20034;-93
2023/08/06 08:48:17;;;;;;;5.22;3.50;;;;;;;25.07;83.66;98299.63;4984076;28;20149;-93
2023/08/06 08:50:46;;;;;;;4.75;1.73;;;;;;;24.90;83.40;98295.00;5005999;28;20030;-93
2023/08/06 08:53:15;;;;;;;5.03;3.15;;;;;;;24.67;82.26;98298.91;4992377;28;20141;-94
2023/08/06 08:55:40;;;;;;;6.63;3.53;;;;;;;24.84;82.24;98286.50;4980382;28;20488;-89
2023/08/06 08:58:07;;;;;;;3.00;2.20;;;;;;;24.84;82.09;98275.72;4992197;28;20049;-89
2023/08/06 09:00:35;;;;;;;5.25;2.78;;;;;;;25.27;81.58;98315.69;4991622;28;20034;-90
2023/08/06 09:03:01;;;;;;;3.55;2.15;;;;;;;25.28;80.47;98299.34;5006182;28;20133;-88
2023/08/06 09:05:33;;;;;;;3.97;1.52;;;;;;;25.46;80.58;98306.69;5005137;28;20415;-92
2023/08/06 09:08:05;;;;;;;2.75;2.17;;;;;;;25.57;80.49;98316.44;4988895;28;20027;-89
2023/08/06 09:10:31;;;;;;;6.25;3.00;;;;;;;25.65;80.73;98311.09;4978010;28;20029;-87
2023/08/06 09:12:58;;;;;;;5.57;1.58;;;;;;;25.36;81.03;98228.47;5005542;28;20043;-87
2023/08/06 09:15:27;;;;;;;2.42;1.55;;;;;;;26.01;81.33;98295.78;5005054;28;20092;-87
2023/08/06 09:17:53;;;;;;;3.35;2.35;;;;;;;26.04;80.91;98265.78;5004869;28;20042;-88
2023/08/06 09:20:19;;;;;;;6.20;2.50;;;;;;;26.53;80.68;98276.06;4990444;28;20040;-85
2023/08/06 09:22:45;;;;;;;2.17;1.50;;;;;;;27.09;80.04;98283.81;4990479;28;20128;-86
2023/08/06 09:25:13;;;;;;;4.53;2.83;;;;;;;27.40;81.69;98242.69;4990693;28;20480;-90
2023/08/06 09:27:39;;;;;;;3.60;2.33;;;;;;;27.58;79.29;98227.16;5005605;28;20043;-89
2023/08/06 09:30:07;;;;;;;2.30;1.52;;;;;;;27.64;74.97;98272.50;4989247;28;20030;-85
2023/08/06 09:32:46;;;;;;;3.83;2.33;;;;;;;27.25;76.76;98237.88;4989970;28;20129;-87
2023/08/06 09:35:16;;;;;;;6.00;2.67;;;;;;;27.74;73.61;98282.34;4990995;28;20117;-85
2023/08/06 09:37:42;;;;;;;3.58;2.60;;;;;;;27.81;76.80;98267.13;4991270;28;20120;-94
2023/08/06 09:40:27;;;;;;;3.88;2.25;;;;;;;28.39;76.02;98284.25;5013042;28;20078;-96
2023/08/06 09:42:56;;;;;;;4.20;3.05;;;;;;;28.42;67.67;98258.66;4990241;28;20034;-94
2023/08/06 09:45:29;;;;;;;4.82;3.08;;;;;;;28.81;67.58;98234.34;4989722;28;21556;-92
2023/08/06 09:47:59;;;;;;;5.13;2.25;;;;;;;29.30;64.46;98222.44;4990127;28;20026;-90
2023/08/06 09:50:33;;;;;;;3.53;2.42;;;;;;;29.58;59.53;98227.34;4990806;28;20053;-87
2023/08/06 09:53:00;;;;;;;4.05;2.17;;;;;;;29.98;60.41;98255.25;4990881;28;20104;-89
2023/08/06 09:55:26;;;;;;;4.80;2.72;;;;;;;30.11;58.18;98251.94;5004963;28;20486;-87
2023/08/06 09:57:53;;;;;;;4.10;2.35;;;;;;;30.12;57.42;98265.34;4990139;28;20034;-88
2023/08/06 10:00:19;;;;;;;5.53;2.83;;;;;;;29.78;59.14;98266.63;4988858;28;20415;-86
2023/08/06 10:02:45;;;;;;;3.65;1.95;;;;;;;29.67;60.09;98242.56;4988061;28;20034;-87
2023/08/06 10:05:11;;;;;;;5.07;2.78;;;;;;;29.92;56.39;98245.13;4990327;28;20044;-87
2023/08/06 10:07:40;;;;;;;2.35;1.60;;;;;;;30.22;56.73;98223.47;4989893;28;20117;-85
2023/08/06 10:10:06;;;;;;;1.63;1.15;;;;;;;30.11;52.36;98216.59;4989778;28;20034;-86
2023/08/06 10:12:37;;;;;;;1.60;1.08;;;;;;;30.09;54.50;98196.91;4989429;28;20409;-88
2023/08/06 10:15:07;;;;;;;1.42;0.98;;;;;;;30.20;52.24;98203.75;4988637;28;20153;-86
2023/08/06 10:17:35;;;;;;;1.38;1.00;;;;;;;30.13;53.52;98199.06;4989993;28;20088;-87
2023/08/06 10:20:01;;;;;;;1.75;1.50;;;;;;;29.88;51.88;98208.47;4988708;28;20042;-88
2023/08/06 10:22:28;;;;;;;3.92;2.30;;;;;;;29.96;50.59;98192.94;4988376;28;20041;-86
2023/08/06 10:24:55;;;;;;;2.97;1.90;;;;;;;29.99;50.11;98208.03;4989017;28;20554;-86
2023/08/06 10:27:29;;;;;;;5.72;2.53;;;;;;;30.21;51.55;98187.25;4988783;28;20388;-87
2023/08/06 10:29:54;;;;;;;6.85;2.10;;;;;;;30.19;48.88;98175.72;4989392;28;20125;-87
2023/08/06 10:32:21;;;;;;;3.63;1.60;;;;;;;30.13;47.51;98158.28;4989375;28;20601;-86
2023/08/06 10:34:57;;;;;;;4.03;2.47;;;;;;;30.55;49.60;98202.22;4989184;28;20527;-86
2023/08/06 10:37:24;;;;;;;2.13;1.75;;;;;;;30.12;45.43;98172.91;4988437;28;20153;-86
2023/08/06 10:39:52;;;;;;;2.97;1.85;;;;;;;30.51;47.03;98209.09;4989115;28;20057;-87
2023/08/06 10:42:29;;;;;;;5.05;2.25;;;;;;;30.39;44.75;98197.81;4989539;28;20125;-86
2023/08/06 10:45:17;;;;;;;8.48;3.25;;;;;;;30.82;46.46;98210.78;4990737;28;20030;-85
2023/08/06 10:47:44;;;;;;;2.85;1.98;;;;;;;30.50;45.64;98153.81;4993151;28;20037;-86
2023/08/06 10:50:16;;;;;;;4.22;2.90;;;;;;;30.87;45.67;98198.25;4992758;28;20113;-87
2023/08/06 10:52:43;;;;;;;3.42;2.25;;;;;;;30.74;41.97;98208.13;4992136;28;20032;-88
2023/08/06 10:55:09;;;;;;;3.65;2.33;;;;;;;30.48;44.16;98202.13;4993353;28;20018;-88
2023/08/06 10:57:35;;;;;;;4.32;2.40;;;;;;;30.24;42.69;98203.19;4991885;28;20566;-87
2023/08/06 11:00:00;;;;;;;2.75;1.65;;;;;;;30.29;44.49;98203.50;4992323;28;20038;-86
2023/08/06 11:02:26;;;;;;;3.75;2.22;;;;;;;30.20;44.63;98201.03;4990996;28;20074;-88
2023/08/06 11:04:52;;;;;;;2.97;1.48;;;;;;;30.13;43.74;98226.25;4992498;28;20034;-85
2023/08/06 11:07:17;;;;;;;3.55;1.85;;;;;;;30.02;43.81;98191.34;4992635;28;20027;-85
2023/08/06 11:09:43;;;;;;;1.65;1.48;;;;;;;29.96;42.85;98183.94;5001038;28;20034;-85
2023/08/06 11:12:11;;;;;;;3.20;2.08;;;;;;;30.24;44.19;98189.59;4991954;28;20026;-89
2023/08/06 11:14:38;;;;;;;3.80;2.00;;;;;;;30.78;43.60;98193.13;4991138;28;20576;-91
2023/08/06 11:17:05;;;;;;;1.83;1.48;;;;;;;31.32;39.38;98222.72;4985816;28;20042;-87
2023/08/06 11:19:31;;;;;;;2.40;1.40;;;;;;;31.46;38.40;98210.09;4992953;28;20054;-88
2023/08/06 11:21:56;;;;;;;2.58;1.88;;;;;;;31.59;38.68;98198.53;4992568;28;20030;-89
2023/08/06 11:24:24;;;;;;;2.58;1.10;;;;;;;31.73;38.40;98216.69;5003679;28;20362;-86
2023/08/06 11:26:49;;;;;;;3.65;2.05;;;;;;;31.71;40.45;98191.50;4973135;28;20117;-86
2023/08/06 11:29:16;;;;;;;2.22;1.20;;;;;;;31.81;39.59;98220.28;4989426;28;20129;-87
2023/08/06 11:31:41;;;;;;;4.47;2.40;;;;;;;32.21;42.96;98207.91;4991323;28;20113;-84
2023/08/06 11:34:07;;;;;;;2.85;1.88;;;;;;;32.39;37.40;98209.28;4991825;28;20122;-89
2023/08/06 11:36:34;;;;;;;2.78;1.75;;;;;;;31.99;37.21;98192.56;4992043;28;20472;-88
2023/08/06 11:39:02;;;;;;;3.00;1.10;;;;;;;32.00;38.22;98207.91;4990020;28;20085;-88
2023/08/06 11:41:29;;;;;;;2.00;1.15;;;;;;;32.00;37.44;98207.91;4996285;28;20038;-87
2023/08/06 11:43:54;;;;;;;1.73;1.10;;;;;;;32.18;35.67;98221.06;4998183;28;20034;-84